createdAt,value
2018-10-07T00:00:47.660Z,1003.15
2018-10-07T00:01:47.735Z,1003.22
2018-10-07T00:02:47.714Z,1003.24
2018-10-07T00:03:47.745Z,1003.26
2018-10-07T00:04:47.770Z,1003.25
2018-10-07T00:05:47.797Z,1003.27
2018-10-07T00:06:47.824Z,1003.31
2018-10-07T00:07:47.854Z,1003.28
2018-10-07T00:08:47.884Z,1003.24
2018-10-07T00:09:47.912Z,1003.23
2018-10-07T00:10:47.941Z,1003.30
2018-10-07T00:11:47.968Z,1003.31
2018-10-07T00:12:47.996Z,1003.41
2018-10-07T00:13:48.021Z,1003.42
2018-10-07T00:14:48.053Z,1003.56
2018-10-07T00:15:48.078Z,1003.56
2018-10-07T00:16:48.110Z,1003.57
2018-10-07T00:17:48.133Z,1003.59
2018-10-07T00:18:48.161Z,1003.63
2018-10-07T00:19:48.190Z,1003.69
2018-10-07T00:20:48.221Z,1003.77
2018-10-07T00:21:48.245Z,1003.77
2018-10-07T00:22:48.277Z,1003.80
2018-10-07T00:23:48.304Z,1003.83
2018-10-07T00:24:48.330Z,1003.90
2018-10-07T00:25:48.357Z,1003.90
2018-10-07T00:26:48.388Z,1003.92
2018-10-07T00:27:48.417Z,1003.85
2018-10-07T00:28:48.443Z,1003.93
2018-10-07T00:29:48.472Z,1003.86
2018-10-07T00:30:48.498Z,1003.93
2018-10-07T00:31:48.524Z,1003.92
2018-10-07T00:32:48.555Z,1003.92
2018-10-07T00:33:48.584Z,1003.93
2018-10-07T00:34:48.609Z,1003.97
2018-10-07T00:35:48.637Z,1004.01
2018-10-07T00:36:48.665Z,1003.94
2018-10-07T00:37:48.692Z,1003.93
2018-10-07T00:38:48.723Z,1003.92
2018-10-07T00:39:48.751Z,1003.98
2018-10-07T00:40:48.777Z,1004.00
2018-10-07T00:41:48.808Z,1004.08
2018-10-07T00:42:48.835Z,1004.05
2018-10-07T00:43:48.864Z,1004.09
2018-10-07T00:44:48.891Z,1004.15
2018-10-07T00:45:48.916Z,1004.14
2018-10-07T00:46:48.947Z,1004.11
2018-10-07T00:47:48.977Z,1004.17
2018-10-07T00:48:49.004Z,1004.19
2018-10-07T00:49:49.033Z,1004.17
2018-10-07T00:50:49.059Z,1004.20
2018-10-07T00:51:49.086Z,1004.23
2018-10-07T00:52:49.113Z,1004.28
2018-10-07T00:53:49.141Z,1004.35
2018-10-07T00:54:49.172Z,1004.37
2018-10-07T00:55:49.197Z,1004.40
2018-10-07T00:56:49.228Z,1004.41
2018-10-07T00:57:49.254Z,1004.45
2018-10-07T00:58:49.280Z,1004.49
2018-10-07T00:59:49.314Z,1004.46
2018-10-07T01:00:49.338Z,1004.51
2018-10-07T01:01:49.368Z,1004.50
2018-10-07T01:02:49.393Z,1004.46
2018-10-07T01:03:49.418Z,1004.50
2018-10-07T01:04:49.447Z,1004.52
2018-10-07T01:05:49.480Z,1004.58
2018-10-07T01:06:49.503Z,1004.53
2018-10-07T01:07:49.533Z,1004.51
2018-10-07T01:08:49.558Z,1004.56
2018-10-07T01:09:49.595Z,1004.63
2018-10-07T01:10:49.616Z,1004.66
2018-10-07T01:11:49.650Z,1004.70
2018-10-07T01:12:49.673Z,1004.73
2018-10-07T01:13:49.700Z,1004.69
2018-10-07T01:14:49.725Z,1004.73
2018-10-07T01:15:49.752Z,1004.75
2018-10-07T01:16:49.782Z,1004.76
2018-10-07T01:17:49.808Z,1004.77
2018-10-07T01:18:49.839Z,1004.75
2018-10-07T01:19:49.867Z,1004.75
2018-10-07T01:20:49.895Z,1004.81
2018-10-07T01:21:49.922Z,1004.93
2018-10-07T01:22:49.950Z,1004.88
2018-10-07T01:23:49.976Z,1004.92
2018-10-07T01:24:50.007Z,1005.00
2018-10-07T01:25:50.034Z,1004.95
2018-10-07T01:26:50.062Z,1004.91
2018-10-07T01:27:50.092Z,1004.90
2018-10-07T01:28:50.116Z,1004.92
2018-10-07T01:29:50.146Z,1004.91
2018-10-07T01:30:50.173Z,1004.98
2018-10-07T01:31:50.199Z,1004.91
2018-10-07T01:32:50.227Z,1004.90
2018-10-07T01:33:50.256Z,1005.00
2018-10-07T01:34:50.283Z,1005.03
2018-10-07T01:35:50.311Z,1005.01
2018-10-07T01:36:50.341Z,1005.02
2018-10-07T01:37:50.366Z,1004.96
2018-10-07T01:38:50.401Z,1005.04
2018-10-07T01:39:50.423Z,1004.97
2018-10-07T01:40:50.451Z,1005.03
2018-10-07T01:41:50.479Z,1004.99
2018-10-07T01:42:50.506Z,1005.00
2018-10-07T01:43:50.534Z,1005.07
2018-10-07T01:44:50.565Z,1005.09
2018-10-07T01:45:50.592Z,1005.14
2018-10-07T01:46:50.622Z,1005.13
2018-10-07T01:47:50.647Z,1005.18
2018-10-07T01:48:50.674Z,1005.11
2018-10-07T01:49:50.701Z,1005.15
2018-10-07T01:50:50.731Z,1005.19
2018-10-07T01:51:50.759Z,1005.18
2018-10-07T01:52:50.788Z,1005.15
2018-10-07T01:53:50.814Z,1005.19
2018-10-07T01:54:50.841Z,1005.26
2018-10-07T01:55:50.871Z,1005.25
2018-10-07T01:56:50.897Z,1005.26
2018-10-07T01:57:50.928Z,1005.28
2018-10-07T01:58:50.954Z,1005.33
2018-10-07T01:59:50.980Z,1005.35
2018-10-07T02:00:51.011Z,1005.34
2018-10-07T02:01:51.035Z,1005.36
2018-10-07T02:02:51.066Z,1005.36
2018-10-07T02:03:51.095Z,1005.39
2018-10-07T02:04:51.124Z,1005.46
2018-10-07T02:05:51.149Z,1005.47
2018-10-07T02:06:51.175Z,1005.54
2018-10-07T02:07:51.206Z,1005.54
2018-10-07T02:08:51.234Z,1005.57
2018-10-07T02:09:51.259Z,1005.56
2018-10-07T02:10:51.290Z,1005.57
2018-10-07T02:11:51.317Z,1005.60
2018-10-07T02:12:51.342Z,1005.64
2018-10-07T02:13:51.384Z,1005.66
2018-10-07T02:14:51.400Z,1005.78
2018-10-07T02:15:51.426Z,1005.78
2018-10-07T02:16:51.456Z,1005.80
2018-10-07T02:17:51.485Z,1005.82
2018-10-07T02:18:51.511Z,1005.80
2018-10-07T02:19:51.539Z,1005.86
2018-10-07T02:20:51.569Z,1005.90
2018-10-07T02:21:51.592Z,1005.88
2018-10-07T02:22:51.623Z,1005.84
2018-10-07T02:23:51.650Z,1005.89
2018-10-07T02:24:51.677Z,1005.94
2018-10-07T02:25:51.703Z,1005.96
2018-10-07T02:26:51.731Z,1006.03
2018-10-07T02:27:51.761Z,1006.08
2018-10-07T02:28:51.790Z,1006.00
2018-10-07T02:29:51.814Z,1006.06
2018-10-07T02:30:51.843Z,1006.02
2018-10-07T02:31:51.871Z,1005.99
2018-10-07T02:32:51.898Z,1006.05
2018-10-07T02:33:51.925Z,1006.05
2018-10-07T02:34:51.961Z,1006.08
2018-10-07T02:35:51.983Z,1006.07
2018-10-07T02:36:52.012Z,1006.15
2018-10-07T02:37:52.038Z,1006.28
2018-10-07T02:38:52.064Z,1006.27
2018-10-07T02:39:52.094Z,1006.30
2018-10-07T02:40:52.120Z,1006.32
2018-10-07T02:41:52.150Z,1006.33
2018-10-07T02:42:52.175Z,1006.33
2018-10-07T02:43:52.205Z,1006.33
2018-10-07T02:44:52.232Z,1006.33
2018-10-07T02:45:52.259Z,1006.21
2018-10-07T02:46:52.287Z,1006.17
2018-10-07T02:47:52.324Z,1006.21
2018-10-07T02:48:52.342Z,1006.25
2018-10-07T02:49:52.371Z,1006.24
2018-10-07T02:50:52.397Z,1006.28
2018-10-07T02:51:52.422Z,1006.36
2018-10-07T02:52:52.452Z,1006.45
2018-10-07T02:53:52.479Z,1006.59
2018-10-07T02:54:52.506Z,1006.58
2018-10-07T02:55:52.532Z,1006.61
2018-10-07T02:56:52.560Z,1006.62
2018-10-07T02:57:52.592Z,1006.77
2018-10-07T02:58:52.617Z,1006.79
2018-10-07T02:59:52.645Z,1006.71
2018-10-07T03:00:52.671Z,1006.74
2018-10-07T03:01:52.699Z,1006.77
2018-10-07T03:02:52.726Z,1006.78
2018-10-07T03:03:52.754Z,1006.80
2018-10-07T03:04:52.782Z,1006.79
2018-10-07T03:05:52.807Z,1006.85
2018-10-07T03:06:52.833Z,1006.92
2018-10-07T03:07:52.866Z,1006.84
2018-10-07T03:08:52.888Z,1006.90
2018-10-07T03:09:52.919Z,1006.86
2018-10-07T03:10:52.945Z,1006.86
2018-10-07T03:11:52.968Z,1006.92
2018-10-07T03:12:52.997Z,1006.92
2018-10-07T03:13:53.026Z,1006.93
2018-10-07T03:14:53.054Z,1006.92
2018-10-07T03:15:53.078Z,1007.06
2018-10-07T03:16:53.108Z,1006.99
2018-10-07T03:17:53.135Z,1006.99
2018-10-07T03:18:53.162Z,1007.13
2018-10-07T03:19:53.190Z,1007.06
2018-10-07T03:20:53.217Z,1007.14
2018-10-07T03:21:53.245Z,1007.14
2018-10-07T03:22:53.269Z,1007.18
2018-10-07T03:23:53.296Z,1007.19
2018-10-07T03:24:53.323Z,1007.24
2018-10-07T03:25:53.352Z,1007.29
2018-10-07T03:26:53.379Z,1007.34
2018-10-07T03:27:53.405Z,1007.38
2018-10-07T03:28:53.432Z,1007.38
2018-10-07T03:29:53.457Z,1007.38
2018-10-07T03:30:53.486Z,1007.44
2018-10-07T03:31:53.514Z,1007.50
2018-10-07T03:32:53.543Z,1007.49
2018-10-07T03:33:53.570Z,1007.42
2018-10-07T03:34:53.597Z,1007.44
2018-10-07T03:35:53.623Z,1007.46
2018-10-07T03:36:53.651Z,1007.41
2018-10-07T03:37:53.677Z,1007.43
2018-10-07T03:38:53.704Z,1007.46
2018-10-07T03:39:53.730Z,1007.45
2018-10-07T03:41:36.305Z,1007.49
2018-10-07T03:42:36.330Z,1007.53
2018-10-07T03:43:36.358Z,1007.60
2018-10-07T03:44:36.383Z,1007.60
2018-10-07T03:45:36.410Z,1007.67
2018-10-07T03:46:36.452Z,1007.73
2018-10-07T03:47:36.463Z,1007.74
2018-10-07T03:48:36.493Z,1007.73
2018-10-07T03:49:36.522Z,1007.75
2018-10-07T03:50:36.547Z,1007.75
2018-10-07T03:51:36.572Z,1007.74
2018-10-07T03:52:36.600Z,1007.79
2018-10-07T03:53:36.628Z,1007.70
2018-10-07T03:54:36.688Z,1007.76
2018-10-07T03:55:36.682Z,1007.80
2018-10-07T03:56:36.708Z,1007.81
2018-10-07T03:57:36.735Z,1007.80
2018-10-07T03:58:36.761Z,1007.80
2018-10-07T03:59:36.790Z,1007.86
2018-10-07T04:00:36.814Z,1007.81
2018-10-07T04:01:36.841Z,1007.82
2018-10-07T04:02:36.870Z,1007.83
2018-10-07T04:03:36.897Z,1007.88
2018-10-07T04:04:36.920Z,1007.90
2018-10-07T04:05:36.950Z,1007.98
2018-10-07T04:06:36.981Z,1007.91
2018-10-07T04:07:37.003Z,1007.85
2018-10-07T04:08:37.030Z,1007.88
2018-10-07T04:09:37.055Z,1007.90
2018-10-07T04:10:37.084Z,1007.92
2018-10-07T04:11:37.111Z,1007.92
2018-10-07T04:12:37.140Z,1007.95
2018-10-07T04:13:37.164Z,1007.98
2018-10-07T04:14:37.195Z,1007.95
2018-10-07T04:15:37.219Z,1007.95
2018-10-07T04:16:37.245Z,1007.99
2018-10-07T04:17:37.269Z,1007.99
2018-10-07T04:18:37.312Z,1008.08
2018-10-07T04:19:37.323Z,1008.04
2018-10-07T04:20:37.350Z,1007.97
2018-10-07T04:21:37.378Z,1007.97
2018-10-07T04:22:37.403Z,1008.07
2018-10-07T04:23:37.437Z,1008.05
2018-10-07T04:24:40.080Z,1008.04
2018-10-07T04:25:37.485Z,1008.07
2018-10-07T04:26:37.512Z,1008.05
2018-10-07T04:27:37.542Z,1008.07
2018-10-07T04:28:37.563Z,1008.05
2018-10-07T04:29:37.595Z,1007.97
2018-10-07T04:30:37.617Z,1008.04
2018-10-07T04:31:37.644Z,1008.04
2018-10-07T04:32:37.671Z,1008.04
2018-10-07T04:33:37.695Z,1008.01
2018-10-07T04:34:37.726Z,1008.02
2018-10-07T04:35:37.756Z,1008.01
2018-10-07T04:36:37.778Z,1008.03
2018-10-07T04:37:37.803Z,1008.03
2018-10-07T04:38:37.830Z,1008.07
2018-10-07T04:39:37.864Z,1008.04
2018-10-07T04:40:37.882Z,1008.12
2018-10-07T04:41:37.910Z,1008.10
2018-10-07T04:42:37.941Z,1008.20
2018-10-07T04:43:37.965Z,1008.12
2018-10-07T04:44:37.994Z,1008.17
2018-10-07T04:45:38.016Z,1008.14
2018-10-07T04:46:38.043Z,1008.18
2018-10-07T04:47:38.073Z,1008.20
2018-10-07T04:48:38.095Z,1008.22
2018-10-07T04:49:38.125Z,1008.21
2018-10-07T04:50:38.152Z,1008.22
2018-10-07T04:51:38.179Z,1008.24
2018-10-07T04:52:38.202Z,1008.22
2018-10-07T04:53:38.230Z,1008.24
2018-10-07T04:54:38.256Z,1008.21
2018-10-07T04:55:38.284Z,1008.28
2018-10-07T04:56:38.311Z,1008.27
2018-10-07T04:57:38.338Z,1008.29
2018-10-07T04:58:38.362Z,1008.28
2018-10-07T04:59:38.391Z,1008.27
2018-10-07T05:00:38.415Z,1008.23
2018-10-07T05:01:38.442Z,1008.33
2018-10-07T05:02:38.470Z,1008.31
2018-10-07T05:03:38.495Z,1008.32
2018-10-07T05:04:38.522Z,1008.36
2018-10-07T05:05:38.550Z,1008.47
2018-10-07T05:06:38.576Z,1008.49
2018-10-07T05:07:38.603Z,1008.44
2018-10-07T05:08:38.625Z,1008.48
2018-10-07T05:09:38.656Z,1008.51
2018-10-07T05:10:38.684Z,1008.58
2018-10-07T05:11:38.708Z,1008.58
2018-10-07T05:12:38.797Z,1008.53
2018-10-07T05:13:38.760Z,1008.62
2018-10-07T05:14:38.788Z,1008.63
2018-10-07T05:15:38.813Z,1008.65
2018-10-07T05:16:38.843Z,1008.72
2018-10-07T05:17:38.865Z,1008.74
2018-10-07T05:18:38.892Z,1008.73
2018-10-07T05:19:38.918Z,1008.73
2018-10-07T05:20:38.948Z,1008.76
2018-10-07T05:21:38.973Z,1008.79
2018-10-07T05:22:39.000Z,1008.80
2018-10-07T05:23:39.029Z,1008.87
2018-10-07T05:24:39.053Z,1008.91
2018-10-07T05:25:39.079Z,1008.92
2018-10-07T05:26:39.113Z,1008.92
2018-10-07T05:27:39.130Z,1008.98
2018-10-07T05:28:39.156Z,1008.97
2018-10-07T05:29:39.183Z,1009.02
2018-10-07T05:30:39.211Z,1009.05
2018-10-07T05:31:39.236Z,1009.10
2018-10-07T05:32:39.264Z,1009.09
2018-10-07T05:33:39.288Z,1009.16
2018-10-07T05:34:39.317Z,1009.18
2018-10-07T05:35:39.341Z,1009.20
2018-10-07T05:36:39.367Z,1009.24
2018-10-07T05:37:39.398Z,1009.23
2018-10-07T05:38:39.422Z,1009.28
2018-10-07T05:39:39.452Z,1009.28
2018-10-07T05:40:39.472Z,1009.31
2018-10-07T05:41:39.500Z,1009.34
2018-10-07T05:42:39.546Z,1009.32
2018-10-07T05:43:39.553Z,1009.36
2018-10-07T05:44:39.638Z,1009.39
2018-10-07T05:45:39.611Z,1009.43
2018-10-07T05:46:39.633Z,1009.37
2018-10-07T05:47:39.659Z,1009.41
2018-10-07T05:48:39.687Z,1009.42
2018-10-07T05:49:39.716Z,1009.44
2018-10-07T05:50:39.742Z,1009.49
2018-10-07T05:51:39.765Z,1009.52
2018-10-07T05:52:39.793Z,1009.48
2018-10-07T05:53:39.820Z,1009.49
2018-10-07T05:54:39.846Z,1009.54
2018-10-07T05:55:39.942Z,1009.55
2018-10-07T05:56:39.902Z,1009.59
2018-10-07T05:57:39.924Z,1009.66
2018-10-07T05:58:39.950Z,1009.64
2018-10-07T05:59:39.977Z,1009.70
2018-10-07T06:00:40.004Z,1009.75
2018-10-07T06:01:40.109Z,1009.81
2018-10-07T06:02:40.058Z,1009.83
2018-10-07T06:03:40.087Z,1009.89
2018-10-07T06:04:40.115Z,1009.90
2018-10-07T06:05:40.140Z,1009.87
2018-10-07T06:06:40.161Z,1009.87
2018-10-07T06:07:40.190Z,1009.89
2018-10-07T06:08:40.216Z,1009.83
2018-10-07T06:09:40.247Z,1009.89
2018-10-07T06:10:40.269Z,1009.89
2018-10-07T06:11:40.294Z,1009.98
2018-10-07T06:12:40.320Z,1010.00
2018-10-07T06:13:40.348Z,1010.06
2018-10-07T06:14:40.382Z,1010.07
2018-10-07T06:15:40.399Z,1010.11
2018-10-07T06:16:40.423Z,1010.17
2018-10-07T06:17:40.451Z,1010.20
2018-10-07T06:18:40.481Z,1010.26
2018-10-07T06:19:40.506Z,1010.27
2018-10-07T06:20:40.530Z,1010.31
2018-10-07T06:21:40.623Z,1010.28
2018-10-07T06:22:40.582Z,1010.36
2018-10-07T06:23:40.612Z,1010.34
2018-10-07T06:24:40.634Z,1010.36
2018-10-07T06:25:40.661Z,1010.41
2018-10-07T06:26:40.687Z,1010.36
2018-10-07T06:27:40.716Z,1010.43
2018-10-07T06:28:40.742Z,1010.49
2018-10-07T06:29:40.830Z,1010.53
2018-10-07T06:30:40.795Z,1010.54
2018-10-07T06:31:40.841Z,1010.58
2018-10-07T06:32:40.846Z,1010.61
2018-10-07T06:33:40.874Z,1010.59
2018-10-07T06:34:40.901Z,1010.63
2018-10-07T06:35:40.926Z,1010.63
2018-10-07T06:36:40.953Z,1010.54
2018-10-07T06:37:40.981Z,1010.56
2018-10-07T06:38:41.020Z,1010.55
2018-10-07T06:39:41.039Z,1010.54
2018-10-07T06:40:41.058Z,1010.58
2018-10-07T06:41:41.083Z,1010.59
2018-10-07T06:42:41.111Z,1010.60
2018-10-07T06:43:41.138Z,1010.66
2018-10-07T06:44:41.161Z,1010.67
2018-10-07T06:45:41.196Z,1010.70
2018-10-07T06:46:41.220Z,1010.71
2018-10-07T06:47:41.244Z,1010.80
2018-10-07T06:48:41.270Z,1010.80
2018-10-07T06:49:41.295Z,1010.82
2018-10-07T06:50:41.323Z,1010.87
2018-10-07T06:51:41.377Z,1010.85
2018-10-07T06:52:41.374Z,1010.81
2018-10-07T06:53:41.403Z,1010.89
2018-10-07T06:54:41.429Z,1010.87
2018-10-07T06:55:41.454Z,1010.89
2018-10-07T06:56:41.482Z,1010.85
2018-10-07T06:57:41.509Z,1010.97
2018-10-07T06:58:41.550Z,1010.98
2018-10-07T06:59:41.626Z,1011.05
2018-10-07T07:00:41.588Z,1011.05
2018-10-07T07:01:41.615Z,1011.10
2018-10-07T07:02:41.648Z,1011.09
2018-10-07T07:03:41.668Z,1011.16
2018-10-07T07:04:41.693Z,1011.17
2018-10-07T07:05:41.721Z,1011.20
2018-10-07T07:06:41.747Z,1011.18
2018-10-07T07:07:41.772Z,1011.20
2018-10-07T07:08:41.798Z,1011.24
2018-10-07T07:09:41.824Z,1011.26
2018-10-07T07:10:41.853Z,1011.23
2018-10-07T07:11:41.880Z,1011.23
2018-10-07T07:12:41.903Z,1011.30
2018-10-07T07:13:41.929Z,1011.36
2018-10-07T07:14:41.957Z,1011.33
2018-10-07T07:15:41.983Z,1011.30
2018-10-07T07:16:42.009Z,1011.30
2018-10-07T07:17:42.040Z,1011.31
2018-10-07T07:18:42.065Z,1011.36
2018-10-07T07:19:42.162Z,1011.37
2018-10-07T07:20:42.117Z,1011.34
2018-10-07T07:21:42.141Z,1011.36
2018-10-07T07:22:42.178Z,1011.37
2018-10-07T07:23:42.194Z,1011.34
2018-10-07T07:24:42.223Z,1011.34
2018-10-07T07:25:42.247Z,1011.37
2018-10-07T07:26:42.278Z,1011.38
2018-10-07T07:27:42.303Z,1011.39
2018-10-07T07:28:42.331Z,1011.43
2018-10-07T07:29:42.356Z,1011.44
2018-10-07T07:30:42.381Z,1011.41
2018-10-07T07:31:42.409Z,1011.37
2018-10-07T07:32:42.437Z,1011.41
2018-10-07T07:33:42.464Z,1011.40
2018-10-07T07:34:42.486Z,1011.41
2018-10-07T07:35:42.517Z,1011.44
2018-10-07T07:36:42.589Z,1011.44
2018-10-07T07:37:42.565Z,1011.45
2018-10-07T07:38:42.592Z,1011.43
2018-10-07T07:39:42.619Z,1011.43
2018-10-07T07:40:42.647Z,1011.45
2018-10-07T07:41:42.678Z,1011.45
2018-10-07T07:42:42.701Z,1011.52
2018-10-07T07:43:42.728Z,1011.49
2018-10-07T07:44:42.755Z,1011.52
2018-10-07T07:45:42.780Z,1011.53
2018-10-07T07:46:42.809Z,1011.53
2018-10-07T07:47:42.834Z,1011.54
2018-10-07T07:48:42.860Z,1011.53
2018-10-07T07:49:42.886Z,1011.50
2018-10-07T07:50:42.914Z,1011.46
2018-10-07T07:51:42.938Z,1011.53
2018-10-07T07:52:42.967Z,1011.55
2018-10-07T07:53:42.993Z,1011.65
2018-10-07T07:54:43.019Z,1011.59
2018-10-07T07:55:43.045Z,1011.66
2018-10-07T07:56:43.075Z,1011.63
2018-10-07T07:57:43.100Z,1011.66
2018-10-07T07:58:43.124Z,1011.82
2018-10-07T07:59:43.155Z,1011.79
2018-10-07T08:00:43.178Z,1011.73
2018-10-07T08:01:43.207Z,1011.78
2018-10-07T08:02:43.233Z,1011.86
2018-10-07T08:03:43.261Z,1012.08
2018-10-07T08:04:43.289Z,1012.27
2018-10-07T08:05:43.312Z,1012.39
2018-10-07T08:06:43.339Z,1012.48
2018-10-07T08:07:43.373Z,1012.43
2018-10-07T08:08:43.666Z,1012.48
2018-10-07T08:09:43.422Z,1012.47
2018-10-07T08:10:43.448Z,1012.54
2018-10-07T08:11:43.476Z,1012.62
2018-10-07T08:12:43.506Z,1012.70
2018-10-07T08:13:43.531Z,1012.74
2018-10-07T08:14:43.564Z,1012.75
2018-10-07T08:15:43.592Z,1012.72
2018-10-07T08:16:43.618Z,1012.77
2018-10-07T08:17:43.704Z,1012.83
2018-10-07T08:18:43.679Z,1012.82
2018-10-07T08:19:46.331Z,1012.82
2018-10-07T08:20:43.737Z,1012.83
2018-10-07T08:21:43.767Z,1012.58
2018-10-07T08:22:43.797Z,1012.13
2018-10-07T08:23:43.839Z,1012.02
2018-10-07T08:24:43.856Z,1012.05
2018-10-07T08:25:43.891Z,1012.14
2018-10-07T08:26:43.919Z,1012.08
2018-10-07T08:27:43.952Z,1012.23
2018-10-07T08:28:43.978Z,1012.78
2018-10-07T08:29:44.038Z,1013.00
2018-10-07T08:30:44.041Z,1013.00
2018-10-07T08:31:44.073Z,1013.07
2018-10-07T08:32:44.103Z,1013.09
2018-10-07T08:33:46.756Z,1013.11
2018-10-07T08:34:47.390Z,1013.15
2018-10-07T08:35:44.193Z,1013.15
2018-10-07T08:36:44.224Z,1013.20
2018-10-07T08:37:44.256Z,1013.33
2018-10-07T08:38:44.284Z,1013.31
2018-10-07T08:39:44.320Z,1013.31
2018-10-07T08:40:44.347Z,1013.33
2018-10-07T08:41:44.387Z,1013.36
2018-10-07T08:42:44.416Z,1013.35
2018-10-07T08:43:44.448Z,1013.38
2018-10-07T08:44:44.485Z,1013.45
2018-10-07T08:45:44.509Z,1013.41
2018-10-07T08:46:44.545Z,1013.44
2018-10-07T08:47:44.579Z,1013.44
2018-10-07T08:48:44.612Z,1013.43
2018-10-07T08:49:44.657Z,1013.43
2018-10-07T08:50:44.679Z,1013.47
2018-10-07T08:51:45.722Z,1013.46
2018-10-07T08:52:44.751Z,1013.45
2018-10-07T08:53:44.781Z,1013.54
2018-10-07T08:54:44.814Z,1013.55
2018-10-07T08:55:44.849Z,1013.52
2018-10-07T08:56:44.885Z,1013.55
2018-10-07T08:57:44.921Z,1013.55
2018-10-07T08:58:44.956Z,1013.56
2018-10-07T08:59:44.989Z,1013.49
2018-10-07T09:00:45.024Z,1013.55
2018-10-07T09:01:45.061Z,1013.53
2018-10-07T09:02:45.094Z,1013.53
2018-10-07T09:03:45.134Z,1013.62
2018-10-07T09:04:45.166Z,1013.63
2018-10-07T09:05:45.202Z,1013.63
2018-10-07T09:06:45.238Z,1013.65
2018-10-07T09:07:45.309Z,1013.57
2018-10-07T09:08:45.317Z,1013.60
2018-10-07T09:09:47.967Z,1013.61
2018-10-07T09:10:45.385Z,1013.66
2018-10-07T09:11:45.416Z,1013.64
2018-10-07T09:12:45.454Z,1013.66
2018-10-07T09:13:45.487Z,1013.65
2018-10-07T09:14:45.616Z,1013.68
2018-10-07T09:15:45.563Z,1013.70
2018-10-07T09:16:45.598Z,1013.74
2018-10-07T09:17:45.635Z,1013.67
2018-10-07T09:18:45.674Z,1013.62
2018-10-07T09:19:45.708Z,1013.62
2018-10-07T09:20:45.771Z,1013.62
2018-10-07T09:21:45.778Z,1013.58
2018-10-07T09:22:45.815Z,1013.57
2018-10-07T09:23:45.853Z,1013.56
2018-10-07T09:24:45.887Z,1013.55
2018-10-07T09:25:45.926Z,1013.54
2018-10-07T09:26:46.047Z,1013.56
2018-10-07T09:27:45.997Z,1013.56
2018-10-07T09:28:46.033Z,1013.53
2018-10-07T09:29:46.072Z,1013.58
2018-10-07T09:30:46.108Z,1013.56
2018-10-07T09:31:46.146Z,1013.59
2018-10-07T09:32:46.208Z,1013.58
2018-10-07T09:33:46.222Z,1013.57
2018-10-07T09:34:46.259Z,1013.63
2018-10-07T09:35:46.294Z,1013.66
2018-10-07T09:36:46.352Z,1013.60
2018-10-07T09:37:46.366Z,1013.62
2018-10-07T09:38:46.404Z,1013.68
2018-10-07T09:39:46.501Z,1013.67
2018-10-07T09:40:50.515Z,1013.70
2018-10-07T09:41:46.514Z,1013.75
2018-10-07T09:42:46.554Z,1013.69
2018-10-07T09:43:46.590Z,1013.70
2018-10-07T09:44:46.628Z,1013.77
2018-10-07T09:45:46.666Z,1013.73
2018-10-07T09:46:46.704Z,1013.74
2018-10-07T09:47:46.740Z,1013.79
2018-10-07T09:48:46.777Z,1013.80
2018-10-07T09:49:46.814Z,1013.80
2018-10-07T09:50:46.850Z,1013.77
2018-10-07T09:51:46.889Z,1013.83
2018-10-07T09:52:46.927Z,1013.83
2018-10-07T09:53:46.963Z,1013.82
2018-10-07T09:54:47.000Z,1013.84
2018-10-07T09:55:47.046Z,1013.82
2018-10-07T09:56:47.072Z,1013.82
2018-10-07T09:57:47.111Z,1013.85
2018-10-07T09:58:47.146Z,1013.87
2018-10-07T09:59:47.184Z,1013.87
2018-10-07T10:00:47.223Z,1013.93
2018-10-07T10:01:47.261Z,1013.93
2018-10-07T10:02:47.298Z,1013.91
2018-10-07T10:03:47.334Z,1013.94
2018-10-07T10:04:47.373Z,1013.93
2018-10-07T10:05:47.410Z,1013.91
2018-10-07T10:06:47.447Z,1013.98
2018-10-07T10:07:47.485Z,1013.97
2018-10-07T10:08:47.522Z,1014.03
2018-10-07T10:09:47.558Z,1014.07
2018-10-07T10:10:47.595Z,1014.06
2018-10-07T10:11:47.637Z,1014.05
2018-10-07T10:12:47.674Z,1014.07
2018-10-07T10:13:47.712Z,1014.09
2018-10-07T10:14:47.755Z,1013.20
2018-10-07T10:15:47.786Z,1013.95
2018-10-07T10:16:47.824Z,1014.02
2018-10-07T10:17:47.862Z,1014.09
2018-10-07T10:18:47.897Z,1014.04
2018-10-07T10:19:48.054Z,1014.04
2018-10-07T10:20:47.974Z,1014.02
2018-10-07T10:21:48.013Z,1014.13
2018-10-07T10:22:48.048Z,1014.09
2018-10-07T10:23:48.089Z,1014.07
2018-10-07T10:24:48.126Z,1013.24
2018-10-07T10:25:48.162Z,1014.15
2018-10-07T10:26:48.199Z,1014.21
2018-10-07T10:27:48.235Z,1013.39
2018-10-07T10:28:48.272Z,1014.10
2018-10-07T10:29:48.310Z,1014.10
2018-10-07T10:30:48.348Z,1013.24
2018-10-07T10:31:48.387Z,1013.12
2018-10-07T10:32:48.421Z,1013.07
2018-10-07T10:33:48.459Z,1013.78
2018-10-07T10:34:48.505Z,1013.97
2018-10-07T10:35:48.535Z,1013.99
2018-10-07T10:36:48.619Z,1013.93
2018-10-07T10:37:48.605Z,1013.89
2018-10-07T10:38:48.647Z,1013.98
2018-10-07T10:39:48.724Z,1013.75
2018-10-07T10:40:48.715Z,1014.12
2018-10-07T10:41:48.755Z,1014.16
2018-10-07T10:42:48.790Z,1014.18
2018-10-07T10:43:48.827Z,1014.20
2018-10-07T10:44:48.860Z,1014.25
2018-10-07T10:45:48.900Z,1014.24
2018-10-07T10:46:48.937Z,1014.12
2018-10-07T10:47:48.971Z,1014.22
2018-10-07T10:48:49.010Z,1014.20
2018-10-07T10:49:49.047Z,1014.19
2018-10-07T10:50:49.082Z,1014.25
2018-10-07T10:51:49.119Z,1014.23
2018-10-07T10:52:49.159Z,1014.25
2018-10-07T10:53:49.192Z,1014.25
2018-10-07T10:54:49.230Z,1014.28
2018-10-07T10:55:49.269Z,1014.27
2018-10-07T10:56:49.310Z,1014.30
2018-10-07T10:57:49.343Z,1014.24
2018-10-07T10:58:49.378Z,1014.29
2018-10-07T10:59:49.418Z,1014.24
2018-10-07T11:00:49.557Z,1014.31
2018-10-07T11:01:49.494Z,1014.24
2018-10-07T11:02:49.532Z,1014.24
2018-10-07T11:03:49.570Z,1014.22
2018-10-07T11:04:49.604Z,1014.24
2018-10-07T11:05:49.640Z,1014.24
2018-10-07T11:06:49.678Z,1014.24
2018-10-07T11:07:49.718Z,1014.21
2018-10-07T11:08:49.753Z,1014.27
2018-10-07T11:09:49.792Z,1014.28
2018-10-07T11:10:49.828Z,1014.33
2018-10-07T11:11:49.868Z,1014.32
2018-10-07T11:12:49.904Z,1014.30
2018-10-07T11:13:50.119Z,1014.29
2018-10-07T11:14:49.979Z,1014.34
2018-10-07T11:15:50.103Z,1014.31
2018-10-07T11:16:50.057Z,1014.33
2018-10-07T11:17:50.098Z,1014.24
2018-10-07T11:18:50.137Z,1014.29
2018-10-07T11:19:50.171Z,1014.29
2018-10-07T11:20:50.208Z,1014.26
2018-10-07T11:21:50.246Z,1014.30
2018-10-07T11:22:50.285Z,1014.31
2018-10-07T11:23:50.320Z,1014.25
2018-10-07T11:24:50.360Z,1014.24
2018-10-07T11:25:50.398Z,1014.21
2018-10-07T11:26:50.433Z,1014.17
2018-10-07T11:27:50.476Z,1014.22
2018-10-07T11:28:50.512Z,1014.23
2018-10-07T11:29:50.550Z,1014.22
2018-10-07T11:30:50.588Z,1014.15
2018-10-07T11:31:50.624Z,1014.17
2018-10-07T11:32:50.668Z,1014.25
2018-10-07T11:33:50.701Z,1014.17
2018-10-07T11:34:50.810Z,1014.20
2018-10-07T11:35:50.778Z,1014.27
2018-10-07T11:36:50.816Z,1014.35
2018-10-07T11:37:50.854Z,1014.43
2018-10-07T11:38:50.890Z,1014.44
2018-10-07T11:39:50.930Z,1014.42
2018-10-07T11:40:51.036Z,1014.41
2018-10-07T11:41:51.005Z,1014.41
2018-10-07T11:42:51.042Z,1014.51
2018-10-07T11:43:51.083Z,1014.55
2018-10-07T11:44:51.118Z,1014.63
2018-10-07T11:45:51.158Z,1014.67
2018-10-07T11:46:51.196Z,1014.78
2018-10-07T11:47:51.236Z,1014.83
2018-10-07T11:48:51.269Z,1014.93
2018-10-07T11:49:51.312Z,1015.12
2018-10-07T11:50:51.346Z,1015.20
2018-10-07T11:51:51.387Z,1015.24
2018-10-07T11:52:51.437Z,1015.34
2018-10-07T11:53:51.462Z,1015.45
2018-10-07T11:54:51.502Z,1015.52
2018-10-07T11:55:51.539Z,1015.53
2018-10-07T11:56:51.581Z,1015.62
2018-10-07T11:57:51.613Z,1015.93
2018-10-07T11:58:51.652Z,1015.94
2018-10-07T11:59:51.688Z,1016.12
2018-10-07T12:00:51.725Z,1016.29
2018-10-07T12:01:51.765Z,1016.39
2018-10-07T12:02:51.878Z,1016.44
2018-10-07T12:03:51.841Z,1016.55
2018-10-07T12:04:51.876Z,1016.70
2018-10-07T12:05:51.914Z,1016.68
2018-10-07T12:06:51.953Z,1016.71